Time,TemperatureF,DewpointF,PressureIn,WindDirection,WindDirectionDegrees,WindSpeedMPH,WindSpeedGustMPH,Humidity,HourlyPrecipIn,Conditions,Clouds,dailyrainin,SoftwareType,DateUTC
2013-04-25 00:02:00,35.3,32.9,29.99,West,267,2.0,6.0,91,0.00,,SCT016,0.00,VWS V14.01,2013-04-25 05:02:00,
2013-04-25 00:07:00,35.3,32.9,29.99,West,264,5.0,5.0,91,0.00,,SCT016,0.00,VWS V14.01,2013-04-25 05:07:00,
2013-04-25 00:12:00,35.2,32.8,29.99,West,279,6.0,8.0,91,0.00,,SCT016,0.00,VWS V14.01,2013-04-25 05:12:00,
2013-04-25 00:18:00,35.1,32.7,29.99,NW,311,2.0,10.0,91,0.00,,SCT016,0.00,VWS V14.01,2013-04-25 05:18:00,
2013-04-25 00:23:00,35.0,32.4,29.99,West,269,4.0,7.0,90,0.00,,BKN044,0.00,VWS V14.01,2013-04-25 05:23:00,
2013-04-25 00:28:00,34.9,32.3,29.99,West,259,8.0,10.0,90,0.00,,BKN044,0.00,VWS V14.01,2013-04-25 05:28:00,
2013-04-25 00:33:00,34.8,32.5,29.99,West,263,8.0,9.0,91,0.00,,BKN044,0.00,VWS V14.01,2013-04-25 05:33:00,
2013-04-25 00:38:00,34.7,32.3,30.00,WNW,302,6.0,9.0,91,0.00,,BKN044,0.00,VWS V14.01,2013-04-25 05:38:00,
2013-04-25 00:43:00,34.5,32.2,30.00,NW,312,0.0,10.0,91,0.00,,OVC046,0.00,VWS V14.01,2013-04-25 05:43:00,
2013-04-25 00:49:00,34.4,32.0,30.00,West,281,3.0,9.0,91,0.00,,OVC046,0.00,VWS V14.01,2013-04-25 05:49:00,
2013-04-25 00:54:00,34.3,32.0,30.00,West,270,3.0,7.0,91,0.00,,OVC046,0.00,VWS V14.01,2013-04-25 05:54:00,
2013-04-25 00:59:00,34.3,32.0,30.00,West,271,5.0,8.0,91,0.00,,OVC046,0.00,VWS V14.01,2013-04-25 05:59:00,
2013-04-25 01:04:00,34.3,32.2,30.01,NW,304,3.0,7.0,92,0.00,,OVC014,0.00,VWS V14.01,2013-04-25 06:04:00,
2013-04-25 01:09:00,34.1,31.8,30.01,NW,318,3.0,8.0,91,0.00,,OVC014,0.00,VWS V14.01,2013-04-25 06:09:00,
2013-04-25 01:14:00,33.8,31.7,30.01,WSW,256,1.0,6.0,92,0.00,,OVC014,0.00,VWS V14.01,2013-04-25 06:14:00,
2013-04-25 01:19:00,33.7,31.4,30.01,NW,311,3.0,5.0,91,0.00,,OVC014,0.00,VWS V14.01,2013-04-25 06:19:00,
2013-04-25 01:24:00,33.7,31.6,30.01,West,259,2.0,8.0,92,0.00,,OVC014,0.00,VWS V14.01,2013-04-25 06:24:00,
2013-04-25 01:29:00,33.5,31.2,30.01,WNW,295,4.0,11.0,91,0.00,,OVC012,0.00,VWS V14.01,2013-04-25 06:29:00,
2013-04-25 01:34:00,33.3,31.0,30.01,West,263,3.0,4.0,91,0.00,,OVC012,0.00,VWS V14.01,2013-04-25 06:34:00,
2013-04-25 01:39:00,33.3,31.2,30.02,WSW,258,10.0,10.0,92,0.00,,OVC012,0.00,VWS V14.01,2013-04-25 06:39:00,
2013-04-25 01:44:00,33.1,31.0,30.02,West,265,8.0,11.0,92,0.00,,,0.00,VWS V14.01,2013-04-25 06:44:00,
2013-04-25 01:49:00,33.0,30.9,30.02,NW,306,8.0,10.0,92,0.00,,,0.00,VWS V14.01,2013-04-25 06:49:00,
2013-04-25 01:54:00,32.9,30.8,30.02,West,271,1.0,7.0,92,0.00,,,0.00,VWS V14.01,2013-04-25 06:54:00,
2013-04-25 01:59:00,32.9,30.8,30.02,West,261,4.0,7.0,92,0.00,,,0.00,VWS V14.01,2013-04-25 06:59:00,
2013-04-25 02:05:00,32.9,30.8,30.02,West,277,4.0,4.0,92,0.00,,,0.00,VWS V14.01,2013-04-25 07:05:00,
2013-04-25 02:10:00,32.9,30.8,30.02,WNW,294,4.0,7.0,92,0.00,,,0.00,VWS V14.01,2013-04-25 07:10:00,
2013-04-25 02:16:00,32.9,30.6,30.02,WNW,284,0.0,7.0,91,0.00,,,0.00,VWS V14.01,2013-04-25 07:16:00,
2013-04-25 02:21:00,32.9,30.6,30.02,North,355,0.0,2.0,91,0.00,,,0.00,VWS V14.01,2013-04-25 07:21:00,
2013-04-25 02:26:00,32.9,30.6,30.03,West,273,6.0,7.0,91,0.00,,,0.00,VWS V14.01,2013-04-25 07:26:00,
2013-04-25 02:31:00,33.0,30.7,30.03,West,273,3.0,7.0,91,0.00,,,0.00,VWS V14.01,2013-04-25 07:31:00,
2013-04-25 02:36:00,33.0,30.7,30.03,WSW,255,3.0,4.0,91,0.00,,,0.00,VWS V14.01,2013-04-25 07:36:00,
2013-04-25 02:42:00,33.0,30.7,30.03,West,267,3.0,7.0,91,0.00,,,0.00,VWS V14.01,2013-04-25 07:42:00,
2013-04-25 02:47:00,32.9,30.3,30.03,West,280,6.0,9.0,90,0.00,,,0.00,VWS V14.01,2013-04-25 07:47:00,
2013-04-25 02:52:00,32.9,30.3,30.03,West,270,5.0,8.0,90,0.00,,,0.00,VWS V14.01,2013-04-25 07:52:00,
2013-04-25 02:57:00,32.8,30.2,30.03,West,271,4.0,6.0,90,0.00,,,0.00,VWS V14.01,2013-04-25 07:57:00,
2013-04-25 03:02:00,32.9,30.3,30.03,West,273,3.0,5.0,90,0.00,,,0.00,VWS V14.01,2013-04-25 08:02:00,
2013-04-25 03:08:00,32.8,30.2,30.03,West,268,2.0,7.0,90,0.00,,,0.00,VWS V14.01,2013-04-25 08:08:00,
2013-04-25 03:13:00,32.7,29.8,30.04,West,268,4.0,4.0,89,0.00,,,0.00,VWS V14.01,2013-04-25 08:13:00,
2013-04-25 03:19:00,32.7,30.1,30.04,West,268,3.0,6.0,90,0.00,,,0.00,VWS V14.01,2013-04-25 08:19:00,
2013-04-25 03:24:00,32.6,29.7,30.04,West,269,1.0,9.0,89,0.00,,,0.00,VWS V14.01,2013-04-25 08:24:00,
2013-04-25 03:30:00,32.6,29.7,30.04,WNW,292,3.0,9.0,89,0.00,,,0.00,VWS V14.01,2013-04-25 08:30:00,
2013-04-25 03:35:00,32.5,29.6,30.04,WNW,288,0.0,2.0,89,0.00,,,0.00,VWS V14.01,2013-04-25 08:35:00,
2013-04-25 03:40:00,32.5,29.6,30.05,West,268,0.0,5.0,89,0.00,,OVC043,0.00,VWS V14.01,2013-04-25 08:40:00,
2013-04-25 03:45:00,32.5,29.6,30.05,West,281,4.0,9.0,89,0.00,,OVC043,0.00,VWS V14.01,2013-04-25 08:45:00,
2013-04-25 03:50:00,32.5,29.6,30.05,West,271,4.0,7.0,89,0.00,,OVC043,0.00,VWS V14.01,2013-04-25 08:50:00,
2013-04-25 03:55:00,32.4,29.5,30.05,WSW,257,3.0,8.0,89,0.00,,OVC043,0.00,VWS V14.01,2013-04-25 08:55:00,
2013-04-25 04:00:00,32.4,29.2,30.06,West,267,7.0,9.0,88,0.00,,OVC043,0.00,VWS V14.01,2013-04-25 09:00:00,
2013-04-25 04:06:00,32.3,29.4,30.06,West,273,1.0,4.0,89,0.00,,OVC043,0.00,VWS V14.01,2013-04-25 09:06:00,
2013-04-25 04:12:00,32.3,29.4,30.06,West,275,0.0,9.0,89,0.00,,OVC043,0.00,VWS V14.01,2013-04-25 09:12:00,
2013-04-25 04:17:00,32.3,29.4,30.06,West,269,5.0,7.0,89,0.00,,OVC043,0.00,VWS V14.01,2013-04-25 09:17:00,
2013-04-25 04:22:00,32.3,29.4,30.06,West,271,0.0,8.0,89,0.00,,OVC016,0.00,VWS V14.01,2013-04-25 09:22:00,
2013-04-25 04:27:00,32.2,29.3,30.07,West,262,5.0,7.0,89,0.00,,OVC016,0.00,VWS V14.01,2013-04-25 09:27:00,
2013-04-25 04:32:00,32.2,29.6,30.07,West,269,2.0,6.0,90,0.00,,OVC016,0.00,VWS V14.01,2013-04-25 09:32:00,
2013-04-25 04:37:00,32.0,29.1,30.07,West,274,0.0,6.0,89,0.00,,OVC016,0.00,VWS V14.01,2013-04-25 09:37:00,
2013-04-25 04:42:00,31.9,29.0,30.07,West,269,4.0,6.0,89,0.00,,OVC016,0.00,VWS V14.01,2013-04-25 09:42:00,
2013-04-25 04:47:00,31.9,29.3,30.07,West,266,3.0,5.0,90,0.00,,OVC016,0.00,VWS V14.01,2013-04-25 09:47:00,
2013-04-25 04:52:00,31.9,29.0,30.07,West,270,4.0,9.0,89,0.00,,OVC016,0.00,VWS V14.01,2013-04-25 09:52:00,
2013-04-25 04:57:00,31.9,29.3,30.07,West,273,8.0,10.0,90,0.00,,OVC016,0.00,VWS V14.01,2013-04-25 09:57:00,
2013-04-25 05:02:00,31.9,29.0,30.08,West,270,3.0,4.0,89,0.00,,OVC016,0.00,VWS V14.01,2013-04-25 10:02:00,
2013-04-25 05:07:00,31.8,29.2,30.08,WNW,292,5.0,7.0,90,0.00,,OVC016,0.00,VWS V14.01,2013-04-25 10:07:00,
2013-04-25 05:12:00,31.7,28.8,30.08,WNW,290,3.0,7.0,89,0.00,,OVC016,0.00,VWS V14.01,2013-04-25 10:12:00,
2013-04-25 05:18:00,31.8,29.2,30.08,West,275,5.0,5.0,90,0.00,,OVC016,0.00,VWS V14.01,2013-04-25 10:18:00,
2013-04-25 05:23:00,31.9,29.3,30.08,West,279,4.0,7.0,90,0.00,,OVC016,0.00,VWS V14.01,2013-04-25 10:23:00,
2013-04-25 05:28:00,31.7,28.8,30.09,West,266,5.0,8.0,89,0.00,,OVC016,0.00,VWS V14.01,2013-04-25 10:28:00,
2013-04-25 05:33:00,31.6,28.7,30.09,West,269,5.0,6.0,89,0.00,,OVC016,0.00,VWS V14.01,2013-04-25 10:33:00,
2013-04-25 05:38:00,31.6,28.7,30.09,West,273,3.0,6.0,89,0.00,,OVC016,0.00,VWS V14.01,2013-04-25 10:38:00,
2013-04-25 05:43:00,31.7,29.1,30.09,West,269,4.0,4.0,90,0.00,,OVC016,0.00,VWS V14.01,2013-04-25 10:43:00,
2013-04-25 05:48:00,31.6,29.0,30.09,WSW,256,2.0,4.0,90,0.00,,OVC016,0.00,VWS V14.01,2013-04-25 10:48:00,
2013-04-25 05:53:00,31.6,29.0,30.09,West,264,7.0,7.0,90,0.00,,OVC016,0.00,VWS V14.01,2013-04-25 10:53:00,
2013-04-25 05:58:00,31.5,28.9,30.10,West,262,5.0,5.0,90,0.00,,OVC016,0.00,VWS V14.01,2013-04-25 10:58:00,
2013-04-25 06:03:00,31.6,29.0,30.10,West,266,5.0,5.0,90,0.00,,OVC025,0.00,VWS V14.01,2013-04-25 11:03:00,
2013-04-25 06:08:00,31.4,28.8,30.10,West,261,4.0,5.0,90,0.00,,OVC025,0.00,VWS V14.01,2013-04-25 11:08:00,
2013-04-25 06:13:00,31.3,28.7,30.10,West,269,2.0,5.0,90,0.00,,OVC025,0.00,VWS V14.01,2013-04-25 11:13:00,
2013-04-25 06:18:00,31.4,28.8,30.10,West,278,3.0,3.0,90,0.00,,OVC025,0.00,VWS V14.01,2013-04-25 11:18:00,
2013-04-25 06:23:00,31.3,28.7,30.11,West,264,0.0,5.0,90,0.00,,OVC016,0.00,VWS V14.01,2013-04-25 11:23:00,
2013-04-25 06:28:00,31.2,28.6,30.11,West,274,1.0,4.0,90,0.00,,OVC016,0.00,VWS V14.01,2013-04-25 11:28:00,
2013-04-25 06:33:00,31.2,28.6,30.11,West,274,4.0,4.0,90,0.00,,OVC016,0.00,VWS V14.01,2013-04-25 11:33:00,
2013-04-25 06:38:00,31.2,28.6,30.11,West,264,4.0,4.0,90,0.00,,OVC016,0.00,VWS V14.01,2013-04-25 11:38:00,
2013-04-25 06:44:00,31.2,28.6,30.11,West,261,3.0,4.0,90,0.00,,OVC016,0.00,VWS V14.01,2013-04-25 11:44:00,
2013-04-25 06:49:00,31.1,28.5,30.12,West,267,2.0,5.0,90,0.00,,OVC016,0.00,VWS V14.01,2013-04-25 11:49:00,
2013-04-25 06:54:00,31.1,28.5,30.12,West,267,4.0,4.0,90,0.00,,OVC016,0.00,VWS V14.01,2013-04-25 11:54:00,
2013-04-25 06:59:00,31.2,28.6,30.12,West,269,5.0,7.0,90,0.00,,OVC016,0.00,VWS V14.01,2013-04-25 11:59:00,
2013-04-25 07:04:00,31.1,28.5,30.13,West,262,5.0,6.0,90,0.00,,OVC016,0.00,VWS V14.01,2013-04-25 12:04:00,
2013-04-25 07:09:00,31.1,28.5,30.13,West,268,3.0,6.0,90,0.00,,OVC016,0.00,VWS V14.01,2013-04-25 12:09:00,
2013-04-25 07:14:00,31.1,28.5,30.13,West,268,2.0,6.0,90,0.00,,OVC016,0.00,VWS V14.01,2013-04-25 12:14:00,
2013-04-25 07:19:00,31.1,28.5,30.14,West,272,6.0,6.0,90,0.00,,OVC016,0.00,VWS V14.01,2013-04-25 12:19:00,
2013-04-25 07:24:00,31.1,28.5,30.14,West,263,0.0,4.0,90,0.00,,OVC016,0.00,VWS V14.01,2013-04-25 12:24:00,
2013-04-25 07:29:00,31.1,28.5,30.14,West,261,0.0,5.0,90,0.00,,OVC016,0.00,VWS V14.01,2013-04-25 12:29:00,
2013-04-25 07:34:00,31.2,28.6,30.14,West,261,2.0,6.0,90,0.00,,OVC016,0.00,VWS V14.01,2013-04-25 12:34:00,
2013-04-25 07:39:00,31.3,28.7,30.14,WSW,256,4.0,4.0,90,0.00,,OVC016,0.00,VWS V14.01,2013-04-25 12:39:00,
2013-04-25 07:44:00,31.3,28.7,30.15,West,264,0.0,3.0,90,0.00,,OVC016,0.00,VWS V14.01,2013-04-25 12:44:00,
2013-04-25 07:49:00,31.4,28.8,30.15,WSW,242,1.0,5.0,90,0.00,,OVC016,0.00,VWS V14.01,2013-04-25 12:49:00,
2013-04-25 07:54:00,31.4,28.8,30.15,West,268,6.0,6.0,90,0.00,,OVC016,0.00,VWS V14.01,2013-04-25 12:54:00,
2013-04-25 07:59:00,31.4,28.8,30.16,West,267,2.0,5.0,90,0.00,,OVC016,0.00,VWS V14.01,2013-04-25 12:59:00,
2013-04-25 08:04:00,31.4,28.8,30.16,WSW,254,0.0,0.0,90,0.00,,OVC016,0.00,VWS V14.01,2013-04-25 13:04:00,
2013-04-25 08:11:00,31.5,28.9,30.16,WSW,255,5.0,7.0,90,0.00,,OVC016,0.00,VWS V14.01,2013-04-25 13:11:00,
2013-04-25 08:16:00,31.6,28.7,30.16,West,261,1.0,3.0,89,0.00,,OVC016,0.00,VWS V14.01,2013-04-25 13:16:00,
2013-04-25 08:22:00,31.7,29.1,30.17,WSW,246,2.0,4.0,90,0.00,,OVC016,0.00,VWS V14.01,2013-04-25 13:22:00,
2013-04-25 08:27:00,31.6,28.7,30.17,WSW,250,2.0,3.0,89,0.00,,OVC016,0.00,VWS V14.01,2013-04-25 13:27:00,
2013-04-25 08:32:00,31.9,29.0,30.17,WSW,240,2.0,6.0,89,0.00,,OVC016,0.00,VWS V14.01,2013-04-25 13:32:00,
2013-04-25 08:37:00,32.0,29.1,30.17,WSW,258,5.0,5.0,89,0.00,,OVC016,0.00,VWS V14.01,2013-04-25 13:37:00,
2013-04-25 08:42:00,31.9,28.8,30.17,West,265,4.0,9.0,88,0.00,,OVC016,0.00,VWS V14.01,2013-04-25 13:42:00,
2013-04-25 08:48:00,31.9,29.0,30.17,West,269,3.0,3.0,89,0.00,,OVC016,0.00,VWS V14.01,2013-04-25 13:48:00,
2013-04-25 08:53:00,32.1,30.8,30.17,West,266,0.0,2.0,95,0.00,,OVC016,0.00,VWS V14.01,2013-04-25 13:53:00,
2013-04-25 08:58:00,32.3,29.4,30.18,WSW,242,2.0,5.0,89,0.00,,OVC016,0.00,VWS V14.01,2013-04-25 13:58:00,
2013-04-25 09:03:00,32.5,29.4,30.18,WSW,252,3.0,5.0,88,0.00,,OVC016,0.00,VWS V14.01,2013-04-25 14:03:00,
2013-04-25 09:08:00,32.5,29.4,30.18,West,267,4.0,5.0,88,0.00,,OVC016,0.00,VWS V14.01,2013-04-25 14:08:00,
2013-04-25 09:13:00,32.8,29.6,30.18,West,261,3.0,6.0,88,0.00,,OVC016,0.00,VWS V14.01,2013-04-25 14:13:00,
2013-04-25 09:18:00,33.0,29.8,30.18,WSW,258,0.0,0.0,88,0.00,,OVC016,0.00,VWS V14.01,2013-04-25 14:18:00,
2013-04-25 09:23:00,33.2,29.8,30.18,West,263,0.0,5.0,87,0.00,,OVC016,0.00,VWS V14.01,2013-04-25 14:23:00,
2013-04-25 09:28:00,33.5,30.3,30.18,West,270,4.0,4.0,88,0.00,,OVC016,0.00,VWS V14.01,2013-04-25 14:28:00,
2013-04-25 09:33:00,33.5,30.0,30.18,West,268,0.0,1.0,87,0.00,,OVC016,0.00,VWS V14.01,2013-04-25 14:33:00,
2013-04-25 09:38:00,33.8,30.1,30.18,SW,224,0.0,3.0,86,0.00,,OVC016,0.00,VWS V14.01,2013-04-25 14:38:00,
2013-04-25 09:44:00,33.8,30.1,30.18,West,272,2.0,6.0,86,0.00,,OVC016,0.00,VWS V14.01,2013-04-25 14:44:00,
2013-04-25 09:49:00,33.8,30.4,30.18,West,261,2.0,7.0,87,0.00,,OVC016,0.00,VWS V14.01,2013-04-25 14:49:00,
2013-04-25 09:55:00,33.7,30.2,30.18,West,264,5.0,6.0,87,0.00,,OVC016,0.00,VWS V14.01,2013-04-25 14:55:00,
2013-04-25 10:00:00,33.5,29.8,30.19,West,266,3.0,4.0,86,0.00,,OVC016,0.00,VWS V14.01,2013-04-25 15:00:00,
2013-04-25 10:05:00,33.5,30.0,30.18,West,259,2.0,4.0,87,0.00,,OVC016,0.00,VWS V14.01,2013-04-25 15:05:00,
2013-04-25 10:10:00,34.3,30.6,30.19,WNW,294,3.0,5.0,86,0.00,,OVC016,0.00,VWS V14.01,2013-04-25 15:10:00,
2013-04-25 10:15:00,34.1,30.1,30.19,West,271,2.0,5.0,85,0.00,,OVC016,0.00,VWS V14.01,2013-04-25 15:15:00,
2013-04-25 10:20:00,33.9,30.2,30.20,WSW,254,1.0,5.0,86,0.00,,OVC016,0.00,VWS V14.01,2013-04-25 15:20:00,
2013-04-25 10:26:00,34.0,30.0,30.20,SW,217,0.0,5.0,85,0.00,,OVC016,0.00,VWS V14.01,2013-04-25 15:26:00,
2013-04-25 10:32:00,34.8,30.8,30.19,West,263,2.0,4.0,85,0.00,,OVC016,0.00,VWS V14.01,2013-04-25 15:32:00,
2013-04-25 10:37:00,34.9,30.6,30.20,West,269,0.0,4.0,84,0.00,,OVC016,0.00,VWS V14.01,2013-04-25 15:37:00,
2013-04-25 10:42:00,35.2,31.1,30.20,West,262,5.0,5.0,85,0.00,,OVC016,0.00,VWS V14.01,2013-04-25 15:42:00,
2013-04-25 10:48:00,35.1,30.8,30.20,West,271,0.0,2.0,84,0.00,,OVC016,0.00,VWS V14.01,2013-04-25 15:48:00,
2013-04-25 10:54:00,35.5,31.1,30.20,West,267,5.0,9.0,84,0.00,,OVC016,0.00,VWS V14.01,2013-04-25 15:54:00,
2013-04-25 11:00:00,35.6,31.2,30.20,West,281,6.0,8.0,84,0.00,,OVC016,0.00,VWS V14.01,2013-04-25 16:00:00,
2013-04-25 11:05:00,36.1,31.7,30.20,WSW,253,5.0,5.0,84,0.00,,OVC016,0.00,VWS V14.01,2013-04-25 16:05:00,
2013-04-25 11:09:00,36.9,32.8,30.19,WSW,253,0.0,2.0,85,0.00,,OVC016,0.00,VWS V14.01,2013-04-25 16:09:00,
2013-04-25 11:15:00,36.8,31.8,30.20,West,269,3.0,5.0,82,0.00,,OVC016,0.00,VWS V14.01,2013-04-25 16:15:00,
2013-04-25 11:20:00,36.6,31.6,30.20,West,268,9.0,9.0,82,0.00,,OVC018,0.00,VWS V14.01,2013-04-25 16:20:00,
2013-04-25 11:25:00,36.6,31.3,30.20,West,268,0.0,7.0,81,0.00,,OVC018,0.00,VWS V14.01,2013-04-25 16:25:00,
2013-04-25 11:30:00,37.4,31.8,30.19,West,273,0.0,4.0,80,0.00,,OVC018,0.00,VWS V14.01,2013-04-25 16:30:00,
2013-04-25 11:35:00,37.7,31.8,30.19,WSW,240,1.0,2.0,79,0.00,,OVC018,0.00,VWS V14.01,2013-04-25 16:35:00,
2013-04-25 11:40:00,38.5,33.2,30.19,SW,227,0.0,2.0,81,0.00,,BKN020,0.00,VWS V14.01,2013-04-25 16:40:00,
2013-04-25 11:45:00,38.4,31.8,30.19,West,268,2.0,6.0,77,0.00,,BKN020,0.00,VWS V14.01,2013-04-25 16:45:00,
2013-04-25 11:50:00,38.5,32.2,30.19,West,267,2.0,5.0,78,0.00,,BKN020,0.00,VWS V14.01,2013-04-25 16:50:00,
2013-04-25 11:55:00,39.1,33.2,30.19,West,264,5.0,6.0,79,0.00,,BKN020,0.00,VWS V14.01,2013-04-25 16:55:00,
2013-04-25 12:00:00,39.5,33.2,30.19,West,260,2.0,4.0,78,0.00,,BKN110,0.00,VWS V14.01,2013-04-25 17:00:00,
2013-04-25 12:05:00,39.1,31.9,30.19,NW,320,0.0,4.0,75,0.00,,BKN110,0.00,VWS V14.01,2013-04-25 17:05:00,
2013-04-25 12:10:00,39.0,32.1,30.19,WSW,248,0.0,1.0,76,0.00,,BKN110,0.00,VWS V14.01,2013-04-25 17:10:00,
2013-04-25 12:15:00,39.3,33.0,30.19,West,268,0.0,3.0,78,0.00,,BKN110,0.00,VWS V14.01,2013-04-25 17:15:00,
2013-04-25 12:20:00,40.3,33.3,30.20,WSW,244,3.0,4.0,76,0.00,,BKN024,0.00,VWS V14.01,2013-04-25 17:20:00,
2013-04-25 12:25:00,40.1,32.2,30.20,SW,226,0.0,0.0,73,0.00,,BKN024,0.00,VWS V14.01,2013-04-25 17:25:00,
2013-04-25 12:30:00,40.9,33.9,30.19,SSW,198,0.0,3.0,76,0.00,,BKN024,0.00,VWS V14.01,2013-04-25 17:30:00,
2013-04-25 12:35:00,41.6,34.3,30.19,SW,216,2.0,5.0,75,0.00,,BKN024,0.00,VWS V14.01,2013-04-25 17:35:00,
2013-04-25 12:41:00,42.0,34.0,30.19,SW,221,0.0,3.0,73,0.00,,SCT024,0.00,VWS V14.01,2013-04-25 17:41:00,
2013-04-25 12:46:00,42.0,34.3,30.19,West,261,0.0,4.0,74,0.00,,SCT024,0.00,VWS V14.01,2013-04-25 17:46:00,
2013-04-25 12:51:00,42.1,33.7,30.18,South,173,0.0,7.0,72,0.00,,SCT024,0.00,VWS V14.01,2013-04-25 17:51:00,
2013-04-25 12:57:00,41.9,33.5,30.18,South,181,0.0,1.0,72,0.00,,SCT024,0.00,VWS V14.01,2013-04-25 17:57:00,
2013-04-25 13:02:00,41.9,33.5,30.19,SSW,194,1.0,4.0,72,0.00,,SCT028,0.00,VWS V14.01,2013-04-25 18:02:00,
2013-04-25 13:08:00,41.6,32.9,30.19,SSW,213,1.0,2.0,71,0.00,,SCT028,0.00,VWS V14.01,2013-04-25 18:08:00,
2013-04-25 13:13:00,41.8,33.8,30.18,South,177,1.0,5.0,73,0.00,,SCT028,0.00,VWS V14.01,2013-04-25 18:13:00,
2013-04-25 13:18:00,42.0,34.0,30.19,WSW,248,0.0,0.0,73,0.00,,SCT028,0.00,VWS V14.01,2013-04-25 18:18:00,
2013-04-25 13:23:00,42.1,33.4,30.18,West,273,4.0,5.0,71,0.00,,SCT030,0.00,VWS V14.01,2013-04-25 18:23:00,
2013-04-25 13:28:00,42.4,34.0,30.18,WSW,238,0.0,4.0,72,0.00,,SCT030,0.00,VWS V14.01,2013-04-25 18:28:00,
2013-04-25 13:33:00,42.7,34.3,30.18,SW,232,0.0,4.0,72,0.00,,SCT030,0.00,VWS V14.01,2013-04-25 18:33:00,
2013-04-25 13:39:00,43.1,34.3,30.17,SW,233,0.0,2.0,71,0.00,,SCT030,0.00,VWS V14.01,2013-04-25 18:39:00,
2013-04-25 13:44:00,43.2,33.4,30.18,South,184,5.0,8.0,68,0.00,,SCT030,0.00,VWS V14.01,2013-04-25 18:44:00,
2013-04-25 13:49:00,43.5,33.7,30.18,West,267,0.0,6.0,68,0.00,,SCT030,0.00,VWS V14.01,2013-04-25 18:49:00,
2013-04-25 13:54:00,43.7,34.6,30.17,West,267,1.0,1.0,70,0.00,,SCT030,0.00,VWS V14.01,2013-04-25 18:54:00,
2013-04-25 13:59:00,43.8,33.9,30.18,SW,217,0.0,6.0,68,0.00,,SCT030,0.00,VWS V14.01,2013-04-25 18:59:00,
2013-04-25 14:05:00,44.2,34.3,30.18,South,179,4.0,7.0,68,0.00,,SCT030,0.00,VWS V14.01,2013-04-25 19:05:00,
2013-04-25 14:10:00,43.9,32.5,30.17,SSW,204,1.0,8.0,64,0.00,,SCT030,0.00,VWS V14.01,2013-04-25 19:10:00,
2013-04-25 14:15:00,43.9,33.7,30.17,WSW,241,0.0,2.0,67,0.00,,SCT030,0.00,VWS V14.01,2013-04-25 19:15:00,
2013-04-25 14:20:00,44.5,33.5,30.17,SSW,207,2.0,7.0,65,0.00,,SCT032,0.00,VWS V14.01,2013-04-25 19:20:00,
2013-04-25 14:25:00,45.1,32.5,30.17,SW,221,0.0,1.0,61,0.00,,SCT032,0.00,VWS V14.01,2013-04-25 19:25:00,
2013-04-25 14:30:00,45.6,32.5,30.17,SSW,193,0.0,3.0,60,0.00,,SCT032,0.00,VWS V14.01,2013-04-25 19:30:00,
2013-04-25 14:35:00,45.8,33.5,30.17,West,259,1.0,4.0,62,0.00,,SCT032,0.00,VWS V14.01,2013-04-25 19:35:00,
2013-04-25 14:40:00,46.1,35.4,30.17,SW,222,0.0,4.0,66,0.00,,SCT034,0.00,VWS V14.01,2013-04-25 19:40:00,
2013-04-25 14:45:00,45.9,33.2,30.17,SSE,148,2.0,10.0,61,0.00,,SCT034,0.00,VWS V14.01,2013-04-25 19:45:00,
2013-04-25 14:50:00,46.1,34.6,30.17,SW,215,3.0,3.0,64,0.00,,SCT034,0.00,VWS V14.01,2013-04-25 19:50:00,
2013-04-25 14:55:00,46.3,32.8,30.17,SSW,197,1.0,3.0,59,0.00,,SCT034,0.00,VWS V14.01,2013-04-25 19:55:00,
2013-04-25 15:01:00,46.0,32.9,30.17,SW,235,3.0,3.0,60,0.00,,CLR,0.00,VWS V14.01,2013-04-25 20:01:00,
2013-04-25 15:06:00,46.1,30.4,30.16,SSE,154,1.0,6.0,54,0.00,,CLR,0.00,VWS V14.01,2013-04-25 20:06:00,
2013-04-25 15:11:00,46.4,31.6,30.17,SSW,196,2.0,4.0,56,0.00,,CLR,0.00,VWS V14.01,2013-04-25 20:11:00,
2013-04-25 15:16:00,46.6,30.9,30.16,South,173,8.0,8.0,54,0.00,,CLR,0.00,VWS V14.01,2013-04-25 20:16:00,
2013-04-25 15:21:00,46.7,31.4,30.16,SSW,204,3.0,3.0,55,0.00,,CLR,0.00,VWS V14.01,2013-04-25 20:21:00,
2013-04-25 15:26:00,46.9,29.7,30.16,South,187,0.0,6.0,51,0.00,,CLR,0.00,VWS V14.01,2013-04-25 20:26:00,
2013-04-25 15:32:00,47.4,30.7,30.16,South,186,0.0,5.0,52,0.00,,CLR,0.00,VWS V14.01,2013-04-25 20:32:00,
2013-04-25 15:37:00,47.7,29.0,30.16,WNW,290,1.0,5.0,48,0.00,,CLR,0.00,VWS V14.01,2013-04-25 20:37:00,
2013-04-25 15:42:00,48.0,28.2,30.16,WSW,245,0.0,4.0,46,0.00,,CLR,0.00,VWS V14.01,2013-04-25 20:42:00,
2013-04-25 15:47:00,48.3,30.5,30.16,SW,215,0.0,6.0,50,0.00,,CLR,0.00,VWS V14.01,2013-04-25 20:47:00,
2013-04-25 15:52:00,48.5,32.6,30.16,SW,217,1.0,3.0,54,0.00,,CLR,0.00,VWS V14.01,2013-04-25 20:52:00,
2013-04-25 15:57:00,48.6,30.3,30.16,South,189,0.0,3.0,49,0.00,,CLR,0.00,VWS V14.01,2013-04-25 20:57:00,
2013-04-25 16:03:00,48.8,32.9,30.16,South,182,4.0,4.0,54,0.00,,CLR,0.00,VWS V14.01,2013-04-25 21:03:00,
2013-04-25 16:08:00,48.6,30.3,30.16,SSE,161,4.0,11.0,49,0.00,,CLR,0.00,VWS V14.01,2013-04-25 21:08:00,
2013-04-25 16:14:00,48.4,31.1,30.16,SSW,207,4.0,10.0,51,0.00,,CLR,0.00,VWS V14.01,2013-04-25 21:14:00,
2013-04-25 16:19:00,48.7,30.9,30.15,WSW,247,0.0,0.0,50,0.00,,CLR,0.00,VWS V14.01,2013-04-25 21:19:00,
2013-04-25 16:24:00,49.2,31.4,30.15,SE,136,1.0,4.0,50,0.00,,CLR,0.00,VWS V14.01,2013-04-25 21:24:00,
2013-04-25 16:30:00,49.2,30.4,30.15,WSW,240,0.0,1.0,48,0.00,,CLR,0.00,VWS V14.01,2013-04-25 21:30:00,
2013-04-25 16:35:00,49.3,30.5,30.15,SW,221,0.0,7.0,48,0.00,,CLR,0.00,VWS V14.01,2013-04-25 21:35:00,
2013-04-25 16:40:00,49.4,30.0,30.15,South,184,3.0,4.0,47,0.00,,CLR,0.00,VWS V14.01,2013-04-25 21:40:00,
2013-04-25 16:45:00,49.2,30.4,30.15,SW,216,0.0,1.0,48,0.00,,CLR,0.00,VWS V14.01,2013-04-25 21:45:00,
2013-04-25 16:50:00,49.2,30.4,30.14,SE,140,5.0,7.0,48,0.00,,CLR,0.00,VWS V14.01,2013-04-25 21:50:00,
2013-04-25 16:55:00,49.2,30.4,30.15,South,169,0.0,4.0,48,0.00,,CLR,0.00,VWS V14.01,2013-04-25 21:55:00,
2013-04-25 17:01:00,49.2,30.4,30.14,SSE,160,0.0,1.0,48,0.00,,CLR,0.00,VWS V14.01,2013-04-25 22:01:00,
2013-04-25 17:06:00,49.4,30.5,30.14,South,179,2.0,5.0,48,0.00,,CLR,0.00,VWS V14.01,2013-04-25 22:06:00,
2013-04-25 17:11:00,49.4,30.0,30.14,South,171,1.0,4.0,47,0.00,,CLR,0.00,VWS V14.01,2013-04-25 22:11:00,
2013-04-25 17:16:00,49.3,29.9,30.13,SSE,152,6.0,9.0,47,0.00,,CLR,0.00,VWS V14.01,2013-04-25 22:16:00,
2013-04-25 17:21:00,49.2,31.4,30.13,South,178,0.0,1.0,50,0.00,,CLR,0.00,VWS V14.01,2013-04-25 22:21:00,
2013-04-25 17:26:00,49.4,30.0,30.13,South,185,0.0,2.0,47,0.00,,CLR,0.00,VWS V14.01,2013-04-25 22:26:00,
2013-04-25 17:32:00,49.6,29.7,30.14,SSE,166,4.0,10.0,46,0.00,,CLR,0.00,VWS V14.01,2013-04-25 22:32:00,
2013-04-25 17:37:00,49.8,31.4,30.13,South,175,0.0,5.0,49,0.00,,CLR,0.00,VWS V14.01,2013-04-25 22:37:00,
2013-04-25 17:42:00,50.1,30.1,30.13,South,171,0.0,2.0,46,0.00,,CLR,0.00,VWS V14.01,2013-04-25 22:42:00,
2013-04-25 17:47:00,50.0,30.6,30.13,South,173,0.0,4.0,47,0.00,,CLR,0.00,VWS V14.01,2013-04-25 22:47:00,
2013-04-25 17:53:00,50.3,31.4,30.13,SE,146,0.0,5.0,48,0.00,,CLR,0.00,VWS V14.01,2013-04-25 22:53:00,
2013-04-25 17:58:00,50.6,31.6,30.13,SSE,152,0.0,0.0,48,0.00,,CLR,0.00,VWS V14.01,2013-04-25 22:58:00,
2013-04-25 18:03:00,50.5,31.0,30.12,SSE,152,0.0,1.0,47,0.00,,CLR,0.00,VWS V14.01,2013-04-25 23:03:00,
2013-04-25 18:08:00,50.4,31.5,30.13,SSE,152,0.0,0.0,48,0.00,,CLR,0.00,VWS V14.01,2013-04-25 23:08:00,
2013-04-25 18:14:00,50.2,32.3,30.13,SSE,156,1.0,4.0,50,0.00,,CLR,0.00,VWS V14.01,2013-04-25 23:14:00,
2013-04-25 18:20:00,49.7,30.8,30.13,SE,142,1.0,7.0,48,0.00,,CLR,0.00,VWS V14.01,2013-04-25 23:20:00,
2013-04-25 18:26:00,49.5,32.6,30.13,SSE,157,0.0,0.0,52,0.00,,CLR,0.00,VWS V14.01,2013-04-25 23:26:00,
2013-04-25 18:31:00,49.4,32.0,30.13,SSE,161,4.0,6.0,51,0.00,,CLR,0.00,VWS V14.01,2013-04-25 23:31:00,
2013-04-25 18:36:00,49.3,32.4,30.12,SSE,161,1.0,2.0,52,0.00,,CLR,0.00,VWS V14.01,2013-04-25 23:36:00,
2013-04-25 18:41:00,49.3,31.5,30.12,SSE,148,7.0,9.0,50,0.00,,CLR,0.00,VWS V14.01,2013-04-25 23:41:00,
2013-04-25 18:46:00,49.1,33.2,30.12,SSE,155,0.0,0.0,54,0.00,,CLR,0.00,VWS V14.01,2013-04-25 23:46:00,
2013-04-25 18:52:00,48.9,33.5,30.12,SSE,155,0.0,0.0,55,0.00,,CLR,0.00,VWS V14.01,2013-04-25 23:52:00,
2013-04-25 18:57:00,48.9,33.5,30.12,SSE,155,0.0,0.0,55,0.00,,CLR,0.00,VWS V14.01,2013-04-25 23:57:00,
2013-04-25 19:03:00,48.6,31.8,30.12,SSE,155,0.0,1.0,52,0.00,,SCT110,0.00,VWS V14.01,2013-04-26 00:03:00,
2013-04-25 19:08:00,48.4,33.0,30.12,SSE,155,1.0,1.0,55,0.00,,SCT110,0.00,VWS V14.01,2013-04-26 00:08:00,
2013-04-25 19:13:00,48.2,32.8,30.12,SSE,155,0.0,5.0,55,0.00,,SCT110,0.00,VWS V14.01,2013-04-26 00:13:00,
2013-04-25 19:19:00,48.1,34.9,30.12,SSE,155,0.0,0.0,60,0.00,,SCT110,0.00,VWS V14.01,2013-04-26 00:19:00,
2013-04-25 19:25:00,47.9,35.1,30.12,SSE,155,0.0,0.0,61,0.00,,CLR,0.00,VWS V14.01,2013-04-26 00:25:00,
2013-04-25 19:31:00,47.6,34.8,30.12,SSE,155,0.0,1.0,61,0.00,,CLR,0.00,VWS V14.01,2013-04-26 00:31:00,
2013-04-25 19:36:00,47.3,35.0,30.12,SSE,155,0.0,0.0,62,0.00,,CLR,0.00,VWS V14.01,2013-04-26 00:36:00,
2013-04-25 19:42:00,47.0,35.5,30.12,SSE,155,0.0,0.0,64,0.00,,CLR,0.00,VWS V14.01,2013-04-26 00:42:00,
2013-04-25 19:47:00,46.7,35.6,30.12,SSE,155,0.0,0.0,65,0.00,,CLR,0.00,VWS V14.01,2013-04-26 00:47:00,
2013-04-25 19:53:00,46.3,34.8,30.11,SSE,155,0.0,0.0,64,0.00,,CLR,0.00,VWS V14.01,2013-04-26 00:53:00,
2013-04-25 19:58:00,45.9,34.8,30.11,SSE,155,0.0,0.0,65,0.00,,CLR,0.00,VWS V14.01,2013-04-26 00:58:00,
2013-04-25 20:04:00,45.4,34.7,30.11,SSE,155,0.0,0.0,66,0.00,,CLR,0.00,VWS V14.01,2013-04-26 01:04:00,
2013-04-25 20:10:00,45.0,34.0,30.11,SSE,155,0.0,0.0,65,0.00,,CLR,0.00,VWS V14.01,2013-04-26 01:10:00,
2013-04-25 20:16:00,44.5,33.9,30.11,SSE,155,0.0,0.0,66,0.00,,CLR,0.00,VWS V14.01,2013-04-26 01:16:00,
2013-04-25 20:21:00,44.2,34.0,30.11,SSE,155,0.0,0.0,67,0.00,,SCT120,0.00,VWS V14.01,2013-04-26 01:21:00,
2013-04-25 20:27:00,43.8,33.9,30.11,SSE,155,0.0,0.0,68,0.00,,SCT120,0.00,VWS V14.01,2013-04-26 01:27:00,
2013-04-25 20:32:00,43.6,34.8,30.11,SSE,155,0.0,0.0,71,0.00,,SCT120,0.00,VWS V14.01,2013-04-26 01:32:00,
2013-04-25 20:38:00,43.4,34.3,30.11,SSE,155,0.0,0.0,70,0.00,,SCT120,0.00,VWS V14.01,2013-04-26 01:38:00,
2013-04-25 20:43:00,43.2,34.1,30.11,SSE,155,0.0,0.0,70,0.00,,CLR,0.00,VWS V14.01,2013-04-26 01:43:00,
2013-04-25 20:49:00,43.1,34.3,30.11,SSE,155,0.0,0.0,71,0.00,,CLR,0.00,VWS V14.01,2013-04-26 01:49:00,
2013-04-25 20:55:00,43.4,34.3,30.11,SSE,155,0.0,0.0,70,0.00,,CLR,0.00,VWS V14.01,2013-04-26 01:55:00,
2013-04-25 21:00:00,43.6,34.1,30.11,SSE,155,0.0,0.0,69,0.00,,CLR,0.00,VWS V14.01,2013-04-26 02:00:00,
2013-04-25 21:05:00,43.8,34.3,30.11,SSE,155,0.0,0.0,69,0.00,,CLR,0.00,VWS V14.01,2013-04-26 02:05:00,
2013-04-25 21:10:00,44.0,34.5,30.11,SSE,155,0.0,0.0,69,0.00,,CLR,0.00,VWS V14.01,2013-04-26 02:10:00,
2013-04-25 21:15:00,44.1,34.6,30.10,SSE,155,0.0,0.0,69,0.00,,CLR,0.00,VWS V14.01,2013-04-26 02:15:00,
2013-04-25 21:20:00,44.1,35.3,30.10,SSE,155,0.0,0.0,71,0.00,,CLR,0.00,VWS V14.01,2013-04-26 02:20:00,
2013-04-25 21:26:00,44.1,35.0,30.11,SSE,155,0.0,0.0,70,0.00,,CLR,0.00,VWS V14.01,2013-04-26 02:26:00,
2013-04-25 21:31:00,44.0,35.2,30.11,SSE,155,0.0,0.0,71,0.00,,CLR,0.00,VWS V14.01,2013-04-26 02:31:00,
2013-04-25 21:36:00,44.0,34.9,30.10,SSE,155,0.0,0.0,70,0.00,,CLR,0.00,VWS V14.01,2013-04-26 02:36:00,
2013-04-25 21:42:00,44.1,35.3,30.10,SSE,155,0.0,0.0,71,0.00,,CLR,0.00,VWS V14.01,2013-04-26 02:42:00,
2013-04-25 21:48:00,44.1,35.0,30.10,SSE,155,0.0,0.0,70,0.00,,CLR,0.00,VWS V14.01,2013-04-26 02:48:00,
2013-04-25 21:54:00,44.1,35.0,30.10,SSE,155,0.0,0.0,70,0.00,,CLR,0.00,VWS V14.01,2013-04-26 02:54:00,
2013-04-25 22:00:00,44.1,35.3,30.10,SSE,155,0.0,1.0,71,0.00,,CLR,0.00,VWS V14.01,2013-04-26 03:00:00,
2013-04-25 22:06:00,43.9,35.5,30.10,SSE,155,0.0,0.0,72,0.00,,CLR,0.00,VWS V14.01,2013-04-26 03:06:00,
2013-04-25 22:11:00,43.8,35.4,30.10,SSE,155,0.0,0.0,72,0.00,,CLR,0.00,VWS V14.01,2013-04-26 03:11:00,
2013-04-25 22:16:00,43.6,35.2,30.10,SSE,155,0.0,0.0,72,0.00,,CLR,0.00,VWS V14.01,2013-04-26 03:16:00,
2013-04-25 22:21:00,43.6,35.5,30.10,SSE,155,1.0,4.0,73,0.00,,CLR,0.00,VWS V14.01,2013-04-26 03:21:00,
2013-04-25 22:26:00,43.5,35.4,30.10,SSE,155,0.0,0.0,73,0.00,,CLR,0.00,VWS V14.01,2013-04-26 03:26:00,
2013-04-25 22:31:00,43.4,35.0,30.09,SSE,155,0.0,0.0,72,0.00,,CLR,0.00,VWS V14.01,2013-04-26 03:31:00,
2013-04-25 22:37:00,43.4,35.3,30.10,SSE,155,0.0,0.0,73,0.00,,CLR,0.00,VWS V14.01,2013-04-26 03:37:00,
2013-04-25 22:42:00,43.2,35.1,30.09,SSE,155,0.0,0.0,73,0.00,,CLR,0.00,VWS V14.01,2013-04-26 03:42:00,
2013-04-25 22:47:00,43.1,34.7,30.09,SE,137,0.0,5.0,72,0.00,,CLR,0.00,VWS V14.01,2013-04-26 03:47:00,
2013-04-25 22:52:00,43.1,35.0,30.09,SE,137,0.0,0.0,73,0.00,,CLR,0.00,VWS V14.01,2013-04-26 03:52:00,
2013-04-25 22:57:00,43.1,34.7,30.08,SE,132,0.0,5.0,72,0.00,,CLR,0.00,VWS V14.01,2013-04-26 03:57:00,
2013-04-25 23:01:00,43.2,34.8,30.08,SE,131,0.0,1.0,72,0.00,,CLR,0.00,VWS V14.01,2013-04-26 04:01:00,
2013-04-25 23:02:00,43.3,34.9,30.08,SE,131,0.0,0.0,72,0.00,,CLR,0.00,VWS V14.01,2013-04-26 04:02:00,
2013-04-25 23:04:00,43.3,34.5,30.08,SE,131,0.0,0.0,71,0.00,,CLR,0.00,VWS V14.01,2013-04-26 04:04:00,
2013-04-25 23:06:00,43.3,34.9,30.08,SE,131,0.0,0.0,72,0.00,,CLR,0.00,VWS V14.01,2013-04-26 04:06:00,
2013-04-25 23:08:00,43.3,34.9,30.08,SE,132,0.0,0.0,72,0.00,,CLR,0.00,VWS V14.01,2013-04-26 04:08:00,
2013-04-25 23:13:00,43.2,34.8,30.08,ESE,123,0.0,2.0,72,0.00,,CLR,0.00,VWS V14.01,2013-04-26 04:13:00,
2013-04-25 23:19:00,43.2,34.8,30.07,ESE,123,0.0,0.0,72,0.00,,CLR,0.00,VWS V14.01,2013-04-26 04:19:00,
2013-04-25 23:25:00,43.1,34.3,30.07,ESE,123,0.0,0.0,71,0.00,,CLR,0.00,VWS V14.01,2013-04-26 04:25:00,
2013-04-25 23:31:00,43.0,34.6,30.08,ESE,123,0.0,0.0,72,0.00,,CLR,0.00,VWS V14.01,2013-04-26 04:31:00,
2013-04-25 23:36:00,42.9,34.5,30.07,ESE,123,0.0,1.0,72,0.00,,CLR,0.00,VWS V14.01,2013-04-26 04:36:00,
2013-04-25 23:41:00,42.8,34.4,30.07,ESE,123,0.0,1.0,72,0.00,,CLR,0.00,VWS V14.01,2013-04-26 04:41:00,
2013-04-25 23:46:00,42.7,34.7,30.07,ESE,123,0.0,0.0,73,0.00,,CLR,0.00,VWS V14.01,2013-04-26 04:46:00,
2013-04-25 23:52:00,42.5,34.5,30.07,ESE,123,1.0,1.0,73,0.00,,CLR,0.00,VWS V14.01,2013-04-26 04:52:00,
2013-04-25 23:57:00,42.5,34.5,30.07,ESE,123,0.0,0.0,73,0.00,,CLR,0.00,VWS V14.01,2013-04-26 04:57:00,